sensor_id;sensor_type;location;lat;lon;timestamp;temperature;humidity
39315;DHT22;28703;44.412;11.918;2023-03-24T00:02:23;14.50;99.00
39315;DHT22;28703;44.412;11.918;2023-03-24T00:04:52;14.50;98.90
39315;DHT22;28703;44.412;11.918;2023-03-24T00:07:24;14.50;98.70
39315;DHT22;28703;44.412;11.918;2023-03-24T00:09:50;14.50;98.60
39315;DHT22;28703;44.412;11.918;2023-03-24T00:12:16;14.50;98.50
39315;DHT22;28703;44.412;11.918;2023-03-24T00:14:45;14.50;98.60
39315;DHT22;28703;44.412;11.918;2023-03-24T00:17:11;14.40;99.50
39315;DHT22;28703;44.412;11.918;2023-03-24T00:19:42;14.30;99.90
39315;DHT22;28703;44.412;11.918;2023-03-24T00:22:11;14.40;99.90
39315;DHT22;28703;44.412;11.918;2023-03-24T00:24:41;14.30;99.90
39315;DHT22;28703;44.412;11.918;2023-03-24T00:27:14;14.40;99.90
39315;DHT22;28703;44.412;11.918;2023-03-24T00:29:43;14.40;99.90
39315;DHT22;28703;44.412;11.918;2023-03-24T00:32:09;14.40;99.90
39315;DHT22;28703;44.412;11.918;2023-03-24T00:34:35;14.40;99.90
39315;DHT22;28703;44.412;11.918;2023-03-24T00:37:08;14.30;99.90
39315;DHT22;28703;44.412;11.918;2023-03-24T00:39:34;14.40;99.90
39315;DHT22;28703;44.412;11.918;2023-03-24T00:42:01;14.40;99.90
39315;DHT22;28703;44.412;11.918;2023-03-24T00:44:28;14.50;99.90
39315;DHT22;28703;44.412;11.918;2023-03-24T00:46:54;14.50;99.90
39315;DHT22;28703;44.412;11.918;2023-03-24T00:49:28;14.50;99.80
39315;DHT22;28703;44.412;11.918;2023-03-24T00:52:12;14.50;99.70
39315;DHT22;28703;44.412;11.918;2023-03-24T00:54:39;14.50;99.70
39315;DHT22;28703;44.412;11.918;2023-03-24T00:57:07;14.50;99.70
39315;DHT22;28703;44.412;11.918;2023-03-24T00:59:33;14.50;99.70
39315;DHT22;28703;44.412;11.918;2023-03-24T01:02:10;14.50;99.70
39315;DHT22;28703;44.412;11.918;2023-03-24T01:04:38;14.50;99.80
39315;DHT22;28703;44.412;11.918;2023-03-24T01:07:05;14.40;99.80
39315;DHT22;28703;44.412;11.918;2023-03-24T01:09:34;14.30;99.80
39315;DHT22;28703;44.412;11.918;2023-03-24T01:12:03;14.20;99.90
39315;DHT22;28703;44.412;11.918;2023-03-24T01:14:30;14.20;99.80
39315;DHT22;28703;44.412;11.918;2023-03-24T01:16:57;14.30;99.90
39315;DHT22;28703;44.412;11.918;2023-03-24T01:19:23;14.30;99.70
39315;DHT22;28703;44.412;11.918;2023-03-24T01:21:50;14.30;99.50
39315;DHT22;28703;44.412;11.918;2023-03-24T01:24:20;14.30;99.50
39315;DHT22;28703;44.412;11.918;2023-03-24T01:26:50;14.30;99.40
39315;DHT22;28703;44.412;11.918;2023-03-24T01:29:17;14.40;99.40
39315;DHT22;28703;44.412;11.918;2023-03-24T01:31:43;14.40;99.30
39315;DHT22;28703;44.412;11.918;2023-03-24T01:34:09;14.40;99.30
39315;DHT22;28703;44.412;11.918;2023-03-24T01:36:35;14.40;99.30
39315;DHT22;28703;44.412;11.918;2023-03-24T01:39:01;14.40;99.40
39315;DHT22;28703;44.412;11.918;2023-03-24T01:41:33;14.40;99.40
39315;DHT22;28703;44.412;11.918;2023-03-24T01:44:00;14.50;99.40
39315;DHT22;28703;44.412;11.918;2023-03-24T01:46:26;14.50;99.80
39315;DHT22;28703;44.412;11.918;2023-03-24T01:49:05;14.50;99.60
39315;DHT22;28703;44.412;11.918;2023-03-24T01:51:39;14.50;99.60
39315;DHT22;28703;44.412;11.918;2023-03-24T01:56:52;14.40;99.80
39315;DHT22;28703;44.412;11.918;2023-03-24T01:59:22;14.30;99.90
39315;DHT22;28703;44.412;11.918;2023-03-24T02:02:05;14.30;99.90
39315;DHT22;28703;44.412;11.918;2023-03-24T02:05:04;14.20;99.90
39315;DHT22;28703;44.412;11.918;2023-03-24T02:08:03;14.30;99.90
39315;DHT22;28703;44.412;11.918;2023-03-24T02:10:32;14.30;99.90
39315;DHT22;28703;44.412;11.918;2023-03-24T02:12:59;14.30;99.90
39315;DHT22;28703;44.412;11.918;2023-03-24T02:15:27;14.30;99.90
39315;DHT22;28703;44.412;11.918;2023-03-24T02:18:22;14.30;99.90
39315;DHT22;28703;44.412;11.918;2023-03-24T02:23:57;14.20;99.90
39315;DHT22;28703;44.412;11.918;2023-03-24T02:37:23;14.10;99.90
39315;DHT22;28703;44.412;11.918;2023-03-24T02:51:29;14.10;99.90
39315;DHT22;28703;44.412;11.918;2023-03-24T02:54:09;14.10;99.90
39315;DHT22;28703;44.412;11.918;2023-03-24T02:56:49;14.10;99.90
39315;DHT22;28703;44.412;11.918;2023-03-24T02:59:55;14.00;99.90
39315;DHT22;28703;44.412;11.918;2023-03-24T03:02:49;14.00;99.90
39315;DHT22;28703;44.412;11.918;2023-03-24T03:05:27;13.90;99.90
39315;DHT22;28703;44.412;11.918;2023-03-24T03:07:59;13.90;99.90
39315;DHT22;28703;44.412;11.918;2023-03-24T03:10:33;14.00;99.90
39315;DHT22;28703;44.412;11.918;2023-03-24T03:13:03;14.00;99.90
39315;DHT22;28703;44.412;11.918;2023-03-24T03:15:35;14.00;99.90
39315;DHT22;28703;44.412;11.918;2023-03-24T03:18:37;14.00;99.90
39315;DHT22;28703;44.412;11.918;2023-03-24T03:21:12;14.00;99.90
39315;DHT22;28703;44.412;11.918;2023-03-24T03:23:55;14.00;99.90
39315;DHT22;28703;44.412;11.918;2023-03-24T03:26:24;14.00;99.90
39315;DHT22;28703;44.412;11.918;2023-03-24T03:28:56;13.90;99.90
39315;DHT22;28703;44.412;11.918;2023-03-24T03:31:33;13.90;99.90
39315;DHT22;28703;44.412;11.918;2023-03-24T03:36:51;13.90;99.90
39315;DHT22;28703;44.412;11.918;2023-03-24T03:39:27;13.80;99.90
39315;DHT22;28703;44.412;11.918;2023-03-24T03:41:57;13.80;99.90
39315;DHT22;28703;44.412;11.918;2023-03-24T03:44:24;13.80;99.90
39315;DHT22;28703;44.412;11.918;2023-03-24T03:46:51;13.80;99.90
39315;DHT22;28703;44.412;11.918;2023-03-24T03:49:25;13.80;99.90
39315;DHT22;28703;44.412;11.918;2023-03-24T03:51:52;13.80;99.90
39315;DHT22;28703;44.412;11.918;2023-03-24T03:54:21;13.80;99.90
39315;DHT22;28703;44.412;11.918;2023-03-24T03:56:48;13.70;99.90
39315;DHT22;28703;44.412;11.918;2023-03-24T03:59:32;13.70;99.90
39315;DHT22;28703;44.412;11.918;2023-03-24T04:14:44;13.70;99.90
39315;DHT22;28703;44.412;11.918;2023-03-24T04:32:19;13.40;99.90
39315;DHT22;28703;44.412;11.918;2023-03-24T04:34:49;13.40;99.90
39315;DHT22;28703;44.412;11.918;2023-03-24T04:38:03;13.40;99.90
39315;DHT22;28703;44.412;11.918;2023-03-24T04:40:34;13.40;99.90
39315;DHT22;28703;44.412;11.918;2023-03-24T04:43:03;13.30;99.90
39315;DHT22;28703;44.412;11.918;2023-03-24T04:45:33;13.40;99.90
39315;DHT22;28703;44.412;11.918;2023-03-24T04:48:23;13.40;99.90
39315;DHT22;28703;44.412;11.918;2023-03-24T04:51:20;13.30;99.90
39315;DHT22;28703;44.412;11.918;2023-03-24T04:54:22;13.30;99.90
39315;DHT22;28703;44.412;11.918;2023-03-24T04:56:54;13.20;99.90
39315;DHT22;28703;44.412;11.918;2023-03-24T04:59:26;13.30;99.90
39315;DHT22;28703;44.412;11.918;2023-03-24T05:01:53;13.30;99.90
39315;DHT22;28703;44.412;11.918;2023-03-24T05:04:39;13.30;99.90
39315;DHT22;28703;44.412;11.918;2023-03-24T05:07:15;13.30;99.90
39315;DHT22;28703;44.412;11.918;2023-03-24T05:09:47;13.30;99.90
39315;DHT22;28703;44.412;11.918;2023-03-24T05:12:14;13.30;99.90
39315;DHT22;28703;44.412;11.918;2023-03-24T05:15:21;13.30;99.90
39315;DHT22;28703;44.412;11.918;2023-03-24T05:17:56;13.30;99.90
39315;DHT22;28703;44.412;11.918;2023-03-24T05:20:25;13.30;99.90
39315;DHT22;28703;44.412;11.918;2023-03-24T05:22:52;13.30;99.90
39315;DHT22;28703;44.412;11.918;2023-03-24T05:25:27;13.30;99.90
39315;DHT22;28703;44.412;11.918;2023-03-24T05:27:58;13.30;99.90
39315;DHT22;28703;44.412;11.918;2023-03-24T05:30:28;13.30;99.90
39315;DHT22;28703;44.412;11.918;2023-03-24T05:33:04;13.30;99.90
39315;DHT22;28703;44.412;11.918;2023-03-24T05:35:31;13.40;99.90
39315;DHT22;28703;44.412;11.918;2023-03-24T05:37:58;13.30;99.90
39315;DHT22;28703;44.412;11.918;2023-03-24T05:40:32;13.40;99.90
39315;DHT22;28703;44.412;11.918;2023-03-24T05:43:19;13.40;99.90
39315;DHT22;28703;44.412;11.918;2023-03-24T05:45:57;13.50;99.90
39315;DHT22;28703;44.412;11.918;2023-03-24T05:48:29;13.50;99.90
39315;DHT22;28703;44.412;11.918;2023-03-24T05:51:07;13.50;99.90
39315;DHT22;28703;44.412;11.918;2023-03-24T05:53:34;13.50;99.90
39315;DHT22;28703;44.412;11.918;2023-03-24T05:56:20;13.60;99.90
39315;DHT22;28703;44.412;11.918;2023-03-24T05:59:22;13.60;99.90
39315;DHT22;28703;44.412;11.918;2023-03-24T06:02:10;13.60;99.90
39315;DHT22;28703;44.412;11.918;2023-03-24T06:05:05;13.70;99.90
39315;DHT22;28703;44.412;11.918;2023-03-24T06:07:33;13.60;99.90
39315;DHT22;28703;44.412;11.918;2023-03-24T06:10:02;13.70;99.90
39315;DHT22;28703;44.412;11.918;2023-03-24T06:12:46;13.70;99.90
39315;DHT22;28703;44.412;11.918;2023-03-24T06:15:12;13.80;99.90
39315;DHT22;28703;44.412;11.918;2023-03-24T06:17:44;13.70;99.90
39315;DHT22;28703;44.412;11.918;2023-03-24T06:20:23;13.70;99.90
39315;DHT22;28703;44.412;11.918;2023-03-24T06:23:03;13.80;99.90
39315;DHT22;28703;44.412;11.918;2023-03-24T06:25:55;13.90;99.90
39315;DHT22;28703;44.412;11.918;2023-03-24T06:28:24;14.00;99.90
39315;DHT22;28703;44.412;11.918;2023-03-24T06:31:08;14.00;99.90
39315;DHT22;28703;44.412;11.918;2023-03-24T06:33:40;14.10;99.90
39315;DHT22;28703;44.412;11.918;2023-03-24T06:36:09;14.20;99.90
39315;DHT22;28703;44.412;11.918;2023-03-24T06:38:40;14.20;99.90
39315;DHT22;28703;44.412;11.918;2023-03-24T06:41:09;14.30;99.90
39315;DHT22;28703;44.412;11.918;2023-03-24T06:43:36;14.40;99.90
39315;DHT22;28703;44.412;11.918;2023-03-24T06:46:02;14.40;99.90
39315;DHT22;28703;44.412;11.918;2023-03-24T06:48:30;14.50;99.90
39315;DHT22;28703;44.412;11.918;2023-03-24T06:51:04;14.50;99.90
39315;DHT22;28703;44.412;11.918;2023-03-24T06:53:34;14.50;99.90
39315;DHT22;28703;44.412;11.918;2023-03-24T06:56:00;14.60;99.90
39315;DHT22;28703;44.412;11.918;2023-03-24T06:58:43;14.60;99.90
39315;DHT22;28703;44.412;11.918;2023-03-24T07:01:34;14.60;99.90
39315;DHT22;28703;44.412;11.918;2023-03-24T07:04:15;14.60;99.90
39315;DHT22;28703;44.412;11.918;2023-03-24T07:07:04;14.70;99.90
39315;DHT22;28703;44.412;11.918;2023-03-24T07:09:33;14.70;99.90
39315;DHT22;28703;44.412;11.918;2023-03-24T07:12:01;14.70;99.90
39315;DHT22;28703;44.412;11.918;2023-03-24T07:14:42;14.80;99.90
39315;DHT22;28703;44.412;11.918;2023-03-24T07:17:13;14.80;99.90
39315;DHT22;28703;44.412;11.918;2023-03-24T07:19:55;14.80;99.90
39315;DHT22;28703;44.412;11.918;2023-03-24T07:22:31;14.80;99.90
39315;DHT22;28703;44.412;11.918;2023-03-24T07:25:24;14.80;99.90
39315;DHT22;28703;44.412;11.918;2023-03-24T07:27:59;14.80;99.90
39315;DHT22;28703;44.412;11.918;2023-03-24T07:30:26;14.90;99.90
39315;DHT22;28703;44.412;11.918;2023-03-24T07:32:55;14.90;99.90
39315;DHT22;28703;44.412;11.918;2023-03-24T07:35:21;15.00;99.90
39315;DHT22;28703;44.412;11.918;2023-03-24T07:37:48;15.10;99.90
39315;DHT22;28703;44.412;11.918;2023-03-24T07:40:19;15.10;99.90
39315;DHT22;28703;44.412;11.918;2023-03-24T07:42:49;15.20;99.90
39315;DHT22;28703;44.412;11.918;2023-03-24T07:45:36;15.30;99.90
39315;DHT22;28703;44.412;11.918;2023-03-24T07:48:03;15.40;99.90
39315;DHT22;28703;44.412;11.918;2023-03-24T07:50:38;15.40;99.90
39315;DHT22;28703;44.412;11.918;2023-03-24T07:53:25;15.50;99.90
39315;DHT22;28703;44.412;11.918;2023-03-24T07:55:51;15.60;99.90
39315;DHT22;28703;44.412;11.918;2023-03-24T07:58:22;15.60;99.90
39315;DHT22;28703;44.412;11.918;2023-03-24T08:01:24;15.70;99.90
39315;DHT22;28703;44.412;11.918;2023-03-24T08:03:53;15.80;99.90
39315;DHT22;28703;44.412;11.918;2023-03-24T08:06:42;15.90;99.90
39315;DHT22;28703;44.412;11.918;2023-03-24T08:09:08;15.90;99.90
39315;DHT22;28703;44.412;11.918;2023-03-24T08:11:36;16.00;99.90
39315;DHT22;28703;44.412;11.918;2023-03-24T08:14:03;16.10;99.90
39315;DHT22;28703;44.412;11.918;2023-03-24T08:16:29;16.10;99.90
39315;DHT22;28703;44.412;11.918;2023-03-24T08:18:55;16.20;99.90
39315;DHT22;28703;44.412;11.918;2023-03-24T08:21:27;16.30;99.90
39315;DHT22;28703;44.412;11.918;2023-03-24T08:23:53;16.30;99.90
39315;DHT22;28703;44.412;11.918;2023-03-24T08:26:19;16.40;99.90
39315;DHT22;28703;44.412;11.918;2023-03-24T08:28:49;16.50;99.90
39315;DHT22;28703;44.412;11.918;2023-03-24T08:31:16;16.60;99.90
39315;DHT22;28703;44.412;11.918;2023-03-24T08:33:45;16.60;99.90
39315;DHT22;28703;44.412;11.918;2023-03-24T08:36:11;16.70;99.90
39315;DHT22;28703;44.412;11.918;2023-03-24T08:38:41;16.70;99.90
39315;DHT22;28703;44.412;11.918;2023-03-24T08:41:11;16.80;99.90
39315;DHT22;28703;44.412;11.918;2023-03-24T08:43:42;16.80;99.90
39315;DHT22;28703;44.412;11.918;2023-03-24T08:46:17;16.90;99.90
39315;DHT22;28703;44.412;11.918;2023-03-24T08:48:46;16.90;99.90
39315;DHT22;28703;44.412;11.918;2023-03-24T08:51:27;17.00;99.90
39315;DHT22;28703;44.412;11.918;2023-03-24T08:53:59;17.10;99.90
39315;DHT22;28703;44.412;11.918;2023-03-24T08:56:38;17.10;99.90
39315;DHT22;28703;44.412;11.918;2023-03-24T08:59:31;17.20;99.90
39315;DHT22;28703;44.412;11.918;2023-03-24T09:02:00;17.30;99.90
39315;DHT22;28703;44.412;11.918;2023-03-24T09:04:44;17.30;99.90
39315;DHT22;28703;44.412;11.918;2023-03-24T09:07:18;17.40;99.90
39315;DHT22;28703;44.412;11.918;2023-03-24T09:09:45;17.40;99.90
39315;DHT22;28703;44.412;11.918;2023-03-24T09:12:12;17.50;99.90
39315;DHT22;28703;44.412;11.918;2023-03-24T09:14:38;17.60;99.90
39315;DHT22;28703;44.412;11.918;2023-03-24T09:17:07;17.60;99.90
39315;DHT22;28703;44.412;11.918;2023-03-24T09:19:33;17.70;99.90
39315;DHT22;28703;44.412;11.918;2023-03-24T09:22:10;17.70;99.90
39315;DHT22;28703;44.412;11.918;2023-03-24T09:24:39;17.90;99.90
39315;DHT22;28703;44.412;11.918;2023-03-24T09:27:12;18.00;99.90
39315;DHT22;28703;44.412;11.918;2023-03-24T09:29:43;18.00;99.90
39315;DHT22;28703;44.412;11.918;2023-03-24T09:32:10;18.20;99.90
39315;DHT22;28703;44.412;11.918;2023-03-24T09:34:37;18.30;99.90
39315;DHT22;28703;44.412;11.918;2023-03-24T09:37:08;18.30;99.90
39315;DHT22;28703;44.412;11.918;2023-03-24T09:39:36;18.40;99.90
39315;DHT22;28703;44.412;11.918;2023-03-24T09:42:09;18.50;99.90
39315;DHT22;28703;44.412;11.918;2023-03-24T09:44:42;18.60;99.90
39315;DHT22;28703;44.412;11.918;2023-03-24T09:47:30;18.60;99.90
39315;DHT22;28703;44.412;11.918;2023-03-24T09:50:26;18.70;99.90
39315;DHT22;28703;44.412;11.918;2023-03-24T09:53:14;18.70;99.90
39315;DHT22;28703;44.412;11.918;2023-03-24T09:56:15;18.80;99.90
39315;DHT22;28703;44.412;11.918;2023-03-24T09:59:28;18.90;99.70
39315;DHT22;28703;44.412;11.918;2023-03-24T10:01:52;18.80;99.90
39315;DHT22;28703;44.412;11.918;2023-03-24T10:04:24;18.90;99.90
39315;DHT22;28703;44.412;11.918;2023-03-24T10:09:55;19.10;99.80
39315;DHT22;28703;44.412;11.918;2023-03-24T10:12:55;19.20;99.90
39315;DHT22;28703;44.412;11.918;2023-03-24T10:15:53;19.30;99.90
39315;DHT22;28703;44.412;11.918;2023-03-24T10:18:32;19.40;99.90
39315;DHT22;28703;44.412;11.918;2023-03-24T10:21:10;19.40;99.80
39315;DHT22;28703;44.412;11.918;2023-03-24T10:24:00;19.50;99.40
39315;DHT22;28703;44.412;11.918;2023-03-24T10:29:29;19.60;99.70
39315;DHT22;28703;44.412;11.918;2023-03-24T10:32:05;19.70;99.00
39315;DHT22;28703;44.412;11.918;2023-03-24T10:34:43;19.70;99.30
39315;DHT22;28703;44.412;11.918;2023-03-24T10:37:19;19.80;99.70
39315;DHT22;28703;44.412;11.918;2023-03-24T10:40:02;19.80;99.70
39315;DHT22;28703;44.412;11.918;2023-03-24T10:45:31;19.90;99.50
39315;DHT22;28703;44.412;11.918;2023-03-24T10:48:05;19.90;99.10
39315;DHT22;28703;44.412;11.918;2023-03-24T10:50:50;19.90;98.80
39315;DHT22;28703;44.412;11.918;2023-03-24T10:53:37;20.00;98.60
39315;DHT22;28703;44.412;11.918;2023-03-24T10:56:05;20.00;98.60
39315;DHT22;28703;44.412;11.918;2023-03-24T10:58:41;19.90;98.50
39315;DHT22;28703;44.412;11.918;2023-03-24T11:01:26;19.80;97.00
39315;DHT22;28703;44.412;11.918;2023-03-24T11:04:03;19.70;97.50
39315;DHT22;28703;44.412;11.918;2023-03-24T11:06:31;19.70;97.50
39315;DHT22;28703;44.412;11.918;2023-03-24T11:09:29;19.60;96.90
39315;DHT22;28703;44.412;11.918;2023-03-24T11:12:02;19.60;96.60
39315;DHT22;28703;44.412;11.918;2023-03-24T11:14:32;19.50;96.40
39315;DHT22;28703;44.412;11.918;2023-03-24T11:17:11;19.40;96.10
39315;DHT22;28703;44.412;11.918;2023-03-24T11:19:55;19.40;96.10
39315;DHT22;28703;44.412;11.918;2023-03-24T11:22:30;19.30;96.40
39315;DHT22;28703;44.412;11.918;2023-03-24T11:25:02;19.20;96.50
39315;DHT22;28703;44.412;11.918;2023-03-24T11:27:28;19.10;96.30
39315;DHT22;28703;44.412;11.918;2023-03-24T11:30:02;19.10;96.70
39315;DHT22;28703;44.412;11.918;2023-03-24T11:32:28;19.30;96.60
39315;DHT22;28703;44.412;11.918;2023-03-24T11:35:14;19.30;96.60
39315;DHT22;28703;44.412;11.918;2023-03-24T11:37:49;19.30;96.50
39315;DHT22;28703;44.412;11.918;2023-03-24T11:40:24;19.20;96.30
39315;DHT22;28703;44.412;11.918;2023-03-24T11:43:00;19.20;96.00
39315;DHT22;28703;44.412;11.918;2023-03-24T11:45:41;19.20;96.10
39315;DHT22;28703;44.412;11.918;2023-03-24T11:48:34;19.20;96.70
39315;DHT22;28703;44.412;11.918;2023-03-24T11:51:10;19.30;96.60
39315;DHT22;28703;44.412;11.918;2023-03-24T11:53:52;19.40;96.60
39315;DHT22;28703;44.412;11.918;2023-03-24T12:13:18;20.00;95.60
39315;DHT22;28703;44.412;11.918;2023-03-24T12:21:41;20.20;95.20
39315;DHT22;28703;44.412;11.918;2023-03-24T12:30:28;20.50;94.50
39315;DHT22;28703;44.412;11.918;2023-03-24T12:38:58;20.70;94.20
39315;DHT22;28703;44.412;11.918;2023-03-24T12:47:18;21.00;95.10
39315;DHT22;28703;44.412;11.918;2023-03-24T12:50:16;21.00;94.50
39315;DHT22;28703;44.412;11.918;2023-03-24T12:56:02;21.20;93.90
39315;DHT22;28703;44.412;11.918;2023-03-24T12:59:02;21.00;93.10
39315;DHT22;28703;44.412;11.918;2023-03-24T13:01:42;20.90;93.40
39315;DHT22;28703;44.412;11.918;2023-03-24T13:04:28;20.90;93.50
39315;DHT22;28703;44.412;11.918;2023-03-24T13:07:08;21.10;93.70
39315;DHT22;28703;44.412;11.918;2023-03-24T13:23:58;21.50;92.80
39315;DHT22;28703;44.412;11.918;2023-03-24T13:29:45;21.70;92.50
39315;DHT22;28703;44.412;11.918;2023-03-24T13:32:19;21.70;92.40
39315;DHT22;28703;44.412;11.918;2023-03-24T13:34:59;21.80;92.40
39315;DHT22;28703;44.412;11.918;2023-03-24T13:37:54;21.90;92.20
39315;DHT22;28703;44.412;11.918;2023-03-24T13:40:30;22.00;91.90
39315;DHT22;28703;44.412;11.918;2023-03-24T13:43:23;22.00;92.30
39315;DHT22;28703;44.412;11.918;2023-03-24T13:45:59;22.20;92.20
39315;DHT22;28703;44.412;11.918;2023-03-24T13:48:34;22.20;91.40
39315;DHT22;28703;44.412;11.918;2023-03-24T13:56:38;22.60;91.20
39315;DHT22;28703;44.412;11.918;2023-03-24T14:05:54;22.60;90.10
39315;DHT22;28703;44.412;11.918;2023-03-24T14:08:59;22.60;90.40
39315;DHT22;28703;44.412;11.918;2023-03-24T14:11:47;22.70;89.90
39315;DHT22;28703;44.412;11.918;2023-03-24T14:14:20;22.70;90.60
39315;DHT22;28703;44.412;11.918;2023-03-24T14:22:46;23.40;90.00
39315;DHT22;28703;44.412;11.918;2023-03-24T14:27:41;23.60;90.50
39315;DHT22;28703;44.412;11.918;2023-03-24T14:30:25;23.90;90.40
39315;DHT22;28703;44.412;11.918;2023-03-24T14:32:57;24.20;88.10
39315;DHT22;28703;44.412;11.918;2023-03-24T14:35:45;24.20;89.40
39315;DHT22;28703;44.412;11.918;2023-03-24T14:40:48;24.40;88.30
39315;DHT22;28703;44.412;11.918;2023-03-24T14:43:24;24.40;87.20
39315;DHT22;28703;44.412;11.918;2023-03-24T14:50:53;24.10;88.10
39315;DHT22;28703;44.412;11.918;2023-03-24T14:53:29;24.10;87.80
39315;DHT22;28703;44.412;11.918;2023-03-24T14:55:55;24.20;88.20
39315;DHT22;28703;44.412;11.918;2023-03-24T14:58:37;24.00;88.80
39315;DHT22;28703;44.412;11.918;2023-03-24T15:01:08;24.00;88.90
39315;DHT22;28703;44.412;11.918;2023-03-24T15:06:11;24.00;89.70
39315;DHT22;28703;44.412;11.918;2023-03-24T15:08:52;24.00;89.50
39315;DHT22;28703;44.412;11.918;2023-03-24T15:11:22;23.90;89.90
39315;DHT22;28703;44.412;11.918;2023-03-24T15:13:52;23.80;88.70
39315;DHT22;28703;44.412;11.918;2023-03-24T15:16:26;23.70;89.90
39315;DHT22;28703;44.412;11.918;2023-03-24T15:22:10;23.50;88.20
39315;DHT22;28703;44.412;11.918;2023-03-24T15:24:36;23.40;89.10
39315;DHT22;28703;44.412;11.918;2023-03-24T15:29:40;23.60;88.90
39315;DHT22;28703;44.412;11.918;2023-03-24T15:32:20;23.80;89.10
39315;DHT22;28703;44.412;11.918;2023-03-24T15:35:01;23.90;88.50
39315;DHT22;28703;44.412;11.918;2023-03-24T15:37:42;24.10;88.80
39315;DHT22;28703;44.412;11.918;2023-03-24T15:42:54;24.80;87.70
39315;DHT22;28703;44.412;11.918;2023-03-24T15:45:40;25.20;88.70
39315;DHT22;28703;44.412;11.918;2023-03-24T15:48:18;25.60;86.40
39315;DHT22;28703;44.412;11.918;2023-03-24T15:51:09;25.90;85.40
39315;DHT22;28703;44.412;11.918;2023-03-24T15:53:42;26.20;84.30
39315;DHT22;28703;44.412;11.918;2023-03-24T15:56:18;26.60;85.50
39315;DHT22;28703;44.412;11.918;2023-03-24T15:59:05;27.00;85.10
39315;DHT22;28703;44.412;11.918;2023-03-24T16:01:35;27.50;84.00
39315;DHT22;28703;44.412;11.918;2023-03-24T16:04:17;28.00;83.60
39315;DHT22;28703;44.412;11.918;2023-03-24T16:06:51;28.60;82.70
39315;DHT22;28703;44.412;11.918;2023-03-24T16:09:20;28.90;81.70
39315;DHT22;28703;44.412;11.918;2023-03-24T16:11:52;29.00;80.50
39315;DHT22;28703;44.412;11.918;2023-03-24T16:14:27;28.70;80.60
39315;DHT22;28703;44.412;11.918;2023-03-24T16:16:59;28.50;79.80
39315;DHT22;28703;44.412;11.918;2023-03-24T16:19:30;28.30;79.20
39315;DHT22;28703;44.412;11.918;2023-03-24T16:21:57;27.80;80.20
39315;DHT22;28703;44.412;11.918;2023-03-24T16:24:24;27.40;80.30
39315;DHT22;28703;44.412;11.918;2023-03-24T16:26:50;26.90;80.60
39315;DHT22;28703;44.412;11.918;2023-03-24T16:29:19;26.40;81.30
39315;DHT22;28703;44.412;11.918;2023-03-24T16:31:51;26.00;81.60
39315;DHT22;28703;44.412;11.918;2023-03-24T16:34:24;25.60;81.90
39315;DHT22;28703;44.412;11.918;2023-03-24T16:36:52;25.20;82.30
39315;DHT22;28703;44.412;11.918;2023-03-24T16:39:24;24.80;83.00
39315;DHT22;28703;44.412;11.918;2023-03-24T16:41:51;24.60;83.40
39315;DHT22;28703;44.412;11.918;2023-03-24T16:44:18;24.40;83.70
39315;DHT22;28703;44.412;11.918;2023-03-24T16:46:45;24.20;83.90
39315;DHT22;28703;44.412;11.918;2023-03-24T16:49:14;24.00;84.10
39315;DHT22;28703;44.412;11.918;2023-03-24T16:51:44;23.90;84.20
39315;DHT22;28703;44.412;11.918;2023-03-24T16:54:10;23.60;84.70
39315;DHT22;28703;44.412;11.918;2023-03-24T16:56:40;23.40;84.80
39315;DHT22;28703;44.412;11.918;2023-03-24T16:59:06;23.30;84.90
39315;DHT22;28703;44.412;11.918;2023-03-24T17:01:37;23.20;85.70
39315;DHT22;28703;44.412;11.918;2023-03-24T17:04:17;23.10;85.30
39315;DHT22;28703;44.412;11.918;2023-03-24T17:06:46;22.90;85.50
39315;DHT22;28703;44.412;11.918;2023-03-24T17:09:17;22.70;85.90
39315;DHT22;28703;44.412;11.918;2023-03-24T17:11:54;22.60;85.90
39315;DHT22;28703;44.412;11.918;2023-03-24T17:14:23;22.40;86.10
39315;DHT22;28703;44.412;11.918;2023-03-24T17:16:49;22.30;86.20
39315;DHT22;28703;44.412;11.918;2023-03-24T17:19:19;22.10;86.40
39315;DHT22;28703;44.412;11.918;2023-03-24T17:21:47;22.00;86.60
39315;DHT22;28703;44.412;11.918;2023-03-24T17:24:15;21.90;86.80
39315;DHT22;28703;44.412;11.918;2023-03-24T17:26:44;21.80;86.90
39315;DHT22;28703;44.412;11.918;2023-03-24T17:29:11;21.70;87.00
39315;DHT22;28703;44.412;11.918;2023-03-24T17:31:38;21.60;87.10
39315;DHT22;28703;44.412;11.918;2023-03-24T17:34:04;21.50;87.10
39315;DHT22;28703;44.412;11.918;2023-03-24T17:36:33;21.30;87.20
39315;DHT22;28703;44.412;11.918;2023-03-24T17:39:01;21.20;86.90
39315;DHT22;28703;44.412;11.918;2023-03-24T17:41:29;21.10;87.10
39315;DHT22;28703;44.412;11.918;2023-03-24T17:43:56;21.00;87.20
39315;DHT22;28703;44.412;11.918;2023-03-24T17:46:22;20.90;87.30
39315;DHT22;28703;44.412;11.918;2023-03-24T17:48:48;20.80;87.50
39315;DHT22;28703;44.412;11.918;2023-03-24T17:51:14;20.80;87.80
39315;DHT22;28703;44.412;11.918;2023-03-24T17:53:40;20.70;88.00
39315;DHT22;28703;44.412;11.918;2023-03-24T17:56:06;20.60;88.20
39315;DHT22;28703;44.412;11.918;2023-03-24T17:58:34;20.50;88.00
39315;DHT22;28703;44.412;11.918;2023-03-24T18:01:01;20.40;87.90
39315;DHT22;28703;44.412;11.918;2023-03-24T18:03:32;20.30;88.00
39315;DHT22;28703;44.412;11.918;2023-03-24T18:06:08;20.20;87.50
39315;DHT22;28703;44.412;11.918;2023-03-24T18:08:35;20.10;87.10
39315;DHT22;28703;44.412;11.918;2023-03-24T18:11:06;20.00;87.30
39315;DHT22;28703;44.412;11.918;2023-03-24T18:13:32;20.00;87.00
39315;DHT22;28703;44.412;11.918;2023-03-24T18:15:58;20.00;87.10
39315;DHT22;28703;44.412;11.918;2023-03-24T18:18:26;19.90;87.20
39315;DHT22;28703;44.412;11.918;2023-03-24T18:20:52;19.90;87.10
39315;DHT22;28703;44.412;11.918;2023-03-24T18:23:18;19.80;87.40
39315;DHT22;28703;44.412;11.918;2023-03-24T18:25:58;19.70;87.50
39315;DHT22;28703;44.412;11.918;2023-03-24T18:28:26;19.70;87.70
39315;DHT22;28703;44.412;11.918;2023-03-24T18:30:53;19.60;87.70
39315;DHT22;28703;44.412;11.918;2023-03-24T18:33:20;19.60;87.80
39315;DHT22;28703;44.412;11.918;2023-03-24T18:35:51;19.50;87.90
39315;DHT22;28703;44.412;11.918;2023-03-24T18:38:20;19.50;88.20
39315;DHT22;28703;44.412;11.918;2023-03-24T18:41:05;19.40;88.00
39315;DHT22;28703;44.412;11.918;2023-03-24T18:43:32;19.40;88.40
39315;DHT22;28703;44.412;11.918;2023-03-24T18:46:02;19.30;88.80
39315;DHT22;28703;44.412;11.918;2023-03-24T18:48:28;19.30;89.00